sensor_id;sensor_type;location;lat;lon;timestamp;P1;durP1;ratioP1;P2;durP2;ratioP2
14738;SDS011;7461;52.440;13.540;2022-11-20T00:00:39;19.58;;;17.55;;
14738;SDS011;7461;52.440;13.540;2022-11-20T00:03:12;20.88;;;19.33;;
14738;SDS011;7461;52.440;13.540;2022-11-20T00:05:52;19.65;;;17.95;;
14738;SDS011;7461;52.440;13.540;2022-11-20T00:08:20;21.25;;;19.40;;
14738;SDS011;7461;52.440;13.540;2022-11-20T00:10:47;23.83;;;21.58;;
14738;SDS011;7461;52.440;13.540;2022-11-20T00:13:14;20.20;;;18.33;;
14738;SDS011;7461;52.440;13.540;2022-11-20T00:15:41;21.15;;;18.92;;
14738;SDS011;7461;52.440;13.540;2022-11-20T00:18:08;21.45;;;19.50;;
14738;SDS011;7461;52.440;13.540;2022-11-20T00:20:35;20.88;;;18.77;;
14738;SDS011;7461;52.440;13.540;2022-11-20T00:23:03;21.27;;;19.17;;
14738;SDS011;7461;52.440;13.540;2022-11-20T00:25:30;20.95;;;18.98;;
14738;SDS011;7461;52.440;13.540;2022-11-20T00:27:59;20.08;;;18.45;;
14738;SDS011;7461;52.440;13.540;2022-11-20T00:30:26;21.00;;;19.25;;
14738;SDS011;7461;52.440;13.540;2022-11-20T00:32:53;23.63;;;21.58;;
14738;SDS011;7461;52.440;13.540;2022-11-20T00:35:22;22.30;;;20.30;;
14738;SDS011;7461;52.440;13.540;2022-11-20T00:37:49;22.10;;;20.25;;
14738;SDS011;7461;52.440;13.540;2022-11-20T00:40:18;20.73;;;18.77;;
14738;SDS011;7461;52.440;13.540;2022-11-20T00:42:44;21.13;;;19.15;;
14738;SDS011;7461;52.440;13.540;2022-11-20T00:45:11;22.42;;;20.33;;
14738;SDS011;7461;52.440;13.540;2022-11-20T00:47:38;22.80;;;20.90;;
14738;SDS011;7461;52.440;13.540;2022-11-20T00:50:06;21.67;;;19.73;;
14738;SDS011;7461;52.440;13.540;2022-11-20T00:52:33;22.15;;;20.13;;
14738;SDS011;7461;52.440;13.540;2022-11-20T00:55:00;21.35;;;19.55;;
14738;SDS011;7461;52.440;13.540;2022-11-20T00:57:28;22.20;;;20.10;;
14738;SDS011;7461;52.440;13.540;2022-11-20T00:59:55;21.88;;;19.95;;
14738;SDS011;7461;52.440;13.540;2022-11-20T01:02:22;20.23;;;18.50;;
14738;SDS011;7461;52.440;13.540;2022-11-20T01:04:49;21.17;;;19.35;;
14738;SDS011;7461;52.440;13.540;2022-11-20T01:07:16;23.20;;;21.10;;
14738;SDS011;7461;52.440;13.540;2022-11-20T01:09:43;23.13;;;20.88;;
14738;SDS011;7461;52.440;13.540;2022-11-20T01:12:10;19.83;;;18.20;;
14738;SDS011;7461;52.440;13.540;2022-11-20T01:14:38;22.67;;;20.40;;
14738;SDS011;7461;52.440;13.540;2022-11-20T01:17:05;25.52;;;23.25;;
14738;SDS011;7461;52.440;13.540;2022-11-20T01:19:32;22.60;;;20.73;;
14738;SDS011;7461;52.440;13.540;2022-11-20T01:21:59;22.95;;;20.95;;
14738;SDS011;7461;52.440;13.540;2022-11-20T01:24:25;20.98;;;18.95;;
14738;SDS011;7461;52.440;13.540;2022-11-20T01:26:52;20.75;;;18.98;;
14738;SDS011;7461;52.440;13.540;2022-11-20T01:29:20;23.13;;;21.10;;
14738;SDS011;7461;52.440;13.540;2022-11-20T01:31:50;23.85;;;21.70;;
14738;SDS011;7461;52.440;13.540;2022-11-20T01:34:18;23.02;;;20.98;;
14738;SDS011;7461;52.440;13.540;2022-11-20T01:36:48;21.92;;;19.92;;
14738;SDS011;7461;52.440;13.540;2022-11-20T01:39:16;24.70;;;20.90;;
14738;SDS011;7461;52.440;13.540;2022-11-20T01:41:45;23.95;;;21.85;;
14738;SDS011;7461;52.440;13.540;2022-11-20T01:47:27;19.63;;;18.00;;
14738;SDS011;7461;52.440;13.540;2022-11-20T01:49:59;22.42;;;20.52;;
14738;SDS011;7461;52.440;13.540;2022-11-20T01:52:31;22.98;;;20.60;;
14738;SDS011;7461;52.440;13.540;2022-11-20T01:55:04;22.75;;;20.70;;
14738;SDS011;7461;52.440;13.540;2022-11-20T01:57:33;23.55;;;21.45;;
14738;SDS011;7461;52.440;13.540;2022-11-20T02:00:03;22.65;;;20.67;;
14738;SDS011;7461;52.440;13.540;2022-11-20T02:02:34;24.23;;;21.90;;
14738;SDS011;7461;52.440;13.540;2022-11-20T02:05:02;23.75;;;21.63;;
14738;SDS011;7461;52.440;13.540;2022-11-20T02:07:36;23.73;;;21.58;;
14738;SDS011;7461;52.440;13.540;2022-11-20T02:10:04;24.40;;;22.40;;
14738;SDS011;7461;52.440;13.540;2022-11-20T02:12:31;22.05;;;20.33;;
14738;SDS011;7461;52.440;13.540;2022-11-20T02:15:16;22.55;;;20.63;;
14738;SDS011;7461;52.440;13.540;2022-11-20T02:17:44;24.38;;;21.95;;
14738;SDS011;7461;52.440;13.540;2022-11-20T02:20:11;24.38;;;22.40;;
14738;SDS011;7461;52.440;13.540;2022-11-20T02:22:39;22.38;;;20.50;;
14738;SDS011;7461;52.440;13.540;2022-11-20T02:25:16;21.77;;;19.88;;
14738;SDS011;7461;52.440;13.540;2022-11-20T02:27:44;21.10;;;19.25;;
14738;SDS011;7461;52.440;13.540;2022-11-20T02:30:11;23.33;;;21.20;;
14738;SDS011;7461;52.440;13.540;2022-11-20T02:32:39;24.00;;;21.65;;
14738;SDS011;7461;52.440;13.540;2022-11-20T02:35:07;21.27;;;19.33;;
14738;SDS011;7461;52.440;13.540;2022-11-20T02:37:36;22.65;;;20.60;;
14738;SDS011;7461;52.440;13.540;2022-11-20T02:40:06;22.92;;;20.77;;
14738;SDS011;7461;52.440;13.540;2022-11-20T02:42:36;24.17;;;21.83;;
14738;SDS011;7461;52.440;13.540;2022-11-20T02:45:03;26.00;;;23.23;;
14738;SDS011;7461;52.440;13.540;2022-11-20T02:47:30;23.80;;;21.58;;
14738;SDS011;7461;52.440;13.540;2022-11-20T02:49:57;22.15;;;20.23;;
14738;SDS011;7461;52.440;13.540;2022-11-20T02:52:24;22.85;;;20.67;;
14738;SDS011;7461;52.440;13.540;2022-11-20T02:54:52;22.58;;;20.65;;
14738;SDS011;7461;52.440;13.540;2022-11-20T02:57:19;23.10;;;21.20;;
14738;SDS011;7461;52.440;13.540;2022-11-20T02:59:47;24.33;;;22.00;;
14738;SDS011;7461;52.440;13.540;2022-11-20T03:02:14;22.95;;;21.10;;
14738;SDS011;7461;52.440;13.540;2022-11-20T03:04:41;23.45;;;21.35;;
14738;SDS011;7461;52.440;13.540;2022-11-20T03:07:08;21.17;;;19.30;;
14738;SDS011;7461;52.440;13.540;2022-11-20T03:09:35;22.45;;;20.55;;
14738;SDS011;7461;52.440;13.540;2022-11-20T03:12:02;24.25;;;22.08;;
14738;SDS011;7461;52.440;13.540;2022-11-20T03:14:30;23.45;;;21.50;;
14738;SDS011;7461;52.440;13.540;2022-11-20T03:16:58;24.80;;;22.70;;
14738;SDS011;7461;52.440;13.540;2022-11-20T03:19:25;22.80;;;20.70;;
14738;SDS011;7461;52.440;13.540;2022-11-20T03:21:52;22.35;;;20.52;;
14738;SDS011;7461;52.440;13.540;2022-11-20T03:24:19;22.00;;;20.20;;
14738;SDS011;7461;52.440;13.540;2022-11-20T03:26:46;22.77;;;20.88;;
14738;SDS011;7461;52.440;13.540;2022-11-20T03:29:13;23.48;;;21.50;;
14738;SDS011;7461;52.440;13.540;2022-11-20T03:31:40;19.85;;;18.05;;
14738;SDS011;7461;52.440;13.540;2022-11-20T03:34:10;22.17;;;20.25;;
14738;SDS011;7461;52.440;13.540;2022-11-20T03:36:37;24.65;;;22.67;;
14738;SDS011;7461;52.440;13.540;2022-11-20T03:39:05;22.52;;;20.48;;
14738;SDS011;7461;52.440;13.540;2022-11-20T03:41:35;23.85;;;21.60;;
14738;SDS011;7461;52.440;13.540;2022-11-20T03:44:05;20.83;;;19.15;;
14738;SDS011;7461;52.440;13.540;2022-11-20T03:46:33;23.52;;;21.52;;
14738;SDS011;7461;52.440;13.540;2022-11-20T03:49:00;24.15;;;21.63;;
14738;SDS011;7461;52.440;13.540;2022-11-20T03:51:29;22.77;;;20.98;;
14738;SDS011;7461;52.440;13.540;2022-11-20T03:53:58;24.20;;;22.00;;
14738;SDS011;7461;52.440;13.540;2022-11-20T03:56:30;22.65;;;20.80;;
14738;SDS011;7461;52.440;13.540;2022-11-20T03:58:59;21.50;;;19.55;;
14738;SDS011;7461;52.440;13.540;2022-11-20T04:01:27;21.88;;;19.80;;
14738;SDS011;7461;52.440;13.540;2022-11-20T04:03:56;21.30;;;19.40;;
14738;SDS011;7461;52.440;13.540;2022-11-20T04:06:24;22.10;;;19.98;;
14738;SDS011;7461;52.440;13.540;2022-11-20T04:08:54;23.15;;;20.83;;
14738;SDS011;7461;52.440;13.540;2022-11-20T04:11:23;22.73;;;20.83;;
14738;SDS011;7461;52.440;13.540;2022-11-20T04:13:51;24.70;;;22.67;;
14738;SDS011;7461;52.440;13.540;2022-11-20T04:16:20;23.25;;;21.15;;
14738;SDS011;7461;52.440;13.540;2022-11-20T04:18:50;22.10;;;20.00;;
14738;SDS011;7461;52.440;13.540;2022-11-20T04:21:19;22.88;;;20.77;;
14738;SDS011;7461;52.440;13.540;2022-11-20T04:23:46;24.20;;;22.08;;
14738;SDS011;7461;52.440;13.540;2022-11-20T04:26:14;22.70;;;20.63;;
14738;SDS011;7461;52.440;13.540;2022-11-20T04:28:41;24.15;;;22.05;;
14738;SDS011;7461;52.440;13.540;2022-11-20T04:31:08;22.08;;;20.20;;
14738;SDS011;7461;52.440;13.540;2022-11-20T04:33:36;20.65;;;18.88;;
14738;SDS011;7461;52.440;13.540;2022-11-20T04:36:05;23.15;;;20.90;;
14738;SDS011;7461;52.440;13.540;2022-11-20T04:38:33;24.67;;;22.52;;
14738;SDS011;7461;52.440;13.540;2022-11-20T04:41:01;23.65;;;21.50;;
14738;SDS011;7461;52.440;13.540;2022-11-20T04:43:31;23.65;;;21.63;;
14738;SDS011;7461;52.440;13.540;2022-11-20T04:46:00;24.52;;;22.23;;
14738;SDS011;7461;52.440;13.540;2022-11-20T04:48:27;22.40;;;20.33;;
14738;SDS011;7461;52.440;13.540;2022-11-20T04:50:55;23.77;;;21.77;;
14738;SDS011;7461;52.440;13.540;2022-11-20T04:53:23;23.58;;;21.52;;
14738;SDS011;7461;52.440;13.540;2022-11-20T04:55:50;25.08;;;22.98;;
14738;SDS011;7461;52.440;13.540;2022-11-20T04:58:17;21.92;;;20.08;;
14738;SDS011;7461;52.440;13.540;2022-11-20T05:00:45;22.50;;;20.50;;
14738;SDS011;7461;52.440;13.540;2022-11-20T05:03:12;22.40;;;20.40;;
14738;SDS011;7461;52.440;13.540;2022-11-20T05:05:39;24.52;;;22.30;;
14738;SDS011;7461;52.440;13.540;2022-11-20T05:08:06;24.02;;;22.05;;
14738;SDS011;7461;52.440;13.540;2022-11-20T05:10:33;20.17;;;18.63;;
14738;SDS011;7461;52.440;13.540;2022-11-20T05:13:00;25.25;;;22.77;;
14738;SDS011;7461;52.440;13.540;2022-11-20T05:15:28;21.73;;;20.02;;
14738;SDS011;7461;52.440;13.540;2022-11-20T05:17:56;23.58;;;21.45;;
14738;SDS011;7461;52.440;13.540;2022-11-20T05:20:23;22.27;;;20.27;;
14738;SDS011;7461;52.440;13.540;2022-11-20T05:22:50;25.40;;;23.23;;
14738;SDS011;7461;52.440;13.540;2022-11-20T05:25:17;24.33;;;22.05;;
14738;SDS011;7461;52.440;13.540;2022-11-20T05:27:44;23.35;;;21.60;;
14738;SDS011;7461;52.440;13.540;2022-11-20T05:30:11;23.90;;;21.92;;
14738;SDS011;7461;52.440;13.540;2022-11-20T05:32:39;24.33;;;22.27;;
14738;SDS011;7461;52.440;13.540;2022-11-20T05:35:08;23.55;;;21.33;;
14738;SDS011;7461;52.440;13.540;2022-11-20T05:37:35;23.40;;;21.48;;
14738;SDS011;7461;52.440;13.540;2022-11-20T05:40:02;21.45;;;19.60;;
14738;SDS011;7461;52.440;13.540;2022-11-20T05:42:30;23.52;;;21.60;;
14738;SDS011;7461;52.440;13.540;2022-11-20T05:44:57;24.67;;;22.38;;
14738;SDS011;7461;52.440;13.540;2022-11-20T05:47:24;23.08;;;21.08;;
14738;SDS011;7461;52.440;13.540;2022-11-20T05:49:51;22.92;;;20.48;;
14738;SDS011;7461;52.440;13.540;2022-11-20T05:52:19;23.50;;;21.15;;
14738;SDS011;7461;52.440;13.540;2022-11-20T05:54:46;23.25;;;21.30;;
14738;SDS011;7461;52.440;13.540;2022-11-20T05:57:13;25.52;;;23.13;;
14738;SDS011;7461;52.440;13.540;2022-11-20T05:59:40;23.08;;;20.77;;
14738;SDS011;7461;52.440;13.540;2022-11-20T06:02:07;24.00;;;21.70;;
14738;SDS011;7461;52.440;13.540;2022-11-20T06:04:34;23.35;;;21.42;;
14738;SDS011;7461;52.440;13.540;2022-11-20T06:07:01;23.60;;;21.52;;
14738;SDS011;7461;52.440;13.540;2022-11-20T06:09:29;26.35;;;23.60;;
14738;SDS011;7461;52.440;13.540;2022-11-20T06:11:56;24.42;;;22.25;;
14738;SDS011;7461;52.440;13.540;2022-11-20T06:14:23;23.33;;;21.15;;
14738;SDS011;7461;52.440;13.540;2022-11-20T06:16:50;22.95;;;20.90;;
14738;SDS011;7461;52.440;13.540;2022-11-20T06:19:17;22.48;;;20.45;;
14738;SDS011;7461;52.440;13.540;2022-11-20T06:21:44;22.75;;;20.80;;
14738;SDS011;7461;52.440;13.540;2022-11-20T06:24:11;22.10;;;20.17;;
14738;SDS011;7461;52.440;13.540;2022-11-20T06:26:39;25.10;;;23.00;;
14738;SDS011;7461;52.440;13.540;2022-11-20T06:29:06;25.00;;;22.65;;
14738;SDS011;7461;52.440;13.540;2022-11-20T06:31:33;26.15;;;23.55;;
14738;SDS011;7461;52.440;13.540;2022-11-20T06:34:02;26.13;;;23.45;;
14738;SDS011;7461;52.440;13.540;2022-11-20T06:36:30;24.65;;;22.42;;
14738;SDS011;7461;52.440;13.540;2022-11-20T06:38:57;26.10;;;23.75;;
14738;SDS011;7461;52.440;13.540;2022-11-20T06:41:25;23.95;;;21.75;;
14738;SDS011;7461;52.440;13.540;2022-11-20T06:43:54;26.00;;;23.70;;
14738;SDS011;7461;52.440;13.540;2022-11-20T06:46:21;24.27;;;22.17;;
14738;SDS011;7461;52.440;13.540;2022-11-20T06:48:48;24.15;;;22.23;;
14738;SDS011;7461;52.440;13.540;2022-11-20T06:51:16;23.90;;;21.80;;
14738;SDS011;7461;52.440;13.540;2022-11-20T06:53:43;23.60;;;21.50;;
14738;SDS011;7461;52.440;13.540;2022-11-20T06:56:10;24.90;;;22.83;;
14738;SDS011;7461;52.440;13.540;2022-11-20T06:58:37;23.90;;;21.70;;
14738;SDS011;7461;52.440;13.540;2022-11-20T07:01:06;25.70;;;23.20;;
14738;SDS011;7461;52.440;13.540;2022-11-20T07:03:35;23.95;;;21.83;;
14738;SDS011;7461;52.440;13.540;2022-11-20T07:06:03;23.83;;;21.73;;
14738;SDS011;7461;52.440;13.540;2022-11-20T07:08:31;26.73;;;24.00;;
14738;SDS011;7461;52.440;13.540;2022-11-20T07:10:59;25.40;;;23.17;;
14738;SDS011;7461;52.440;13.540;2022-11-20T07:13:27;24.75;;;22.48;;
14738;SDS011;7461;52.440;13.540;2022-11-20T07:15:54;24.40;;;22.15;;
14738;SDS011;7461;52.440;13.540;2022-11-20T07:18:26;24.77;;;22.65;;
14738;SDS011;7461;52.440;13.540;2022-11-20T07:20:53;24.38;;;22.27;;
14738;SDS011;7461;52.440;13.540;2022-11-20T07:23:20;24.42;;;22.27;;
14738;SDS011;7461;52.440;13.540;2022-11-20T07:25:47;27.10;;;24.52;;
14738;SDS011;7461;52.440;13.540;2022-11-20T07:28:14;25.38;;;23.10;;
14738;SDS011;7461;52.440;13.540;2022-11-20T07:30:41;25.25;;;23.20;;
14738;SDS011;7461;52.440;13.540;2022-11-20T07:33:07;27.50;;;25.05;;
14738;SDS011;7461;52.440;13.540;2022-11-20T07:35:36;25.60;;;23.73;;
14738;SDS011;7461;52.440;13.540;2022-11-20T07:38:03;24.83;;;22.58;;
14738;SDS011;7461;52.440;13.540;2022-11-20T07:40:30;26.33;;;23.92;;
14738;SDS011;7461;52.440;13.540;2022-11-20T07:42:57;26.52;;;24.23;;
14738;SDS011;7461;52.440;13.540;2022-11-20T07:45:24;26.00;;;23.77;;
14738;SDS011;7461;52.440;13.540;2022-11-20T07:47:51;25.38;;;23.08;;
14738;SDS011;7461;52.440;13.540;2022-11-20T07:50:18;28.60;;;25.73;;
14738;SDS011;7461;52.440;13.540;2022-11-20T07:52:47;25.15;;;22.75;;
14738;SDS011;7461;52.440;13.540;2022-11-20T07:55:14;27.17;;;24.77;;
14738;SDS011;7461;52.440;13.540;2022-11-20T07:57:41;27.85;;;25.25;;
14738;SDS011;7461;52.440;13.540;2022-11-20T08:00:09;25.52;;;23.48;;
14738;SDS011;7461;52.440;13.540;2022-11-20T08:02:37;26.15;;;23.83;;
14738;SDS011;7461;52.440;13.540;2022-11-20T08:05:05;28.55;;;26.02;;
14738;SDS011;7461;52.440;13.540;2022-11-20T08:07:35;28.85;;;25.95;;
14738;SDS011;7461;52.440;13.540;2022-11-20T08:10:04;27.70;;;25.02;;
14738;SDS011;7461;52.440;13.540;2022-11-20T08:12:32;28.42;;;25.70;;
14738;SDS011;7461;52.440;13.540;2022-11-20T08:15:16;30.15;;;27.25;;
14738;SDS011;7461;52.440;13.540;2022-11-20T08:17:43;29.73;;;26.98;;
14738;SDS011;7461;52.440;13.540;2022-11-20T08:20:10;29.70;;;27.08;;
14738;SDS011;7461;52.440;13.540;2022-11-20T08:22:37;29.33;;;26.40;;
14738;SDS011;7461;52.440;13.540;2022-11-20T08:25:06;29.35;;;26.65;;
14738;SDS011;7461;52.440;13.540;2022-11-20T08:27:33;26.17;;;23.77;;
14738;SDS011;7461;52.440;13.540;2022-11-20T08:30:00;28.90;;;26.50;;
14738;SDS011;7461;52.440;13.540;2022-11-20T08:32:27;27.00;;;24.52;;
14738;SDS011;7461;52.440;13.540;2022-11-20T08:34:54;30.40;;;27.67;;
14738;SDS011;7461;52.440;13.540;2022-11-20T08:37:21;28.88;;;26.17;;
14738;SDS011;7461;52.440;13.540;2022-11-20T08:39:48;27.98;;;25.58;;
14738;SDS011;7461;52.440;13.540;2022-11-20T08:42:16;28.92;;;26.42;;
14738;SDS011;7461;52.440;13.540;2022-11-20T08:44:43;28.67;;;25.92;;
14738;SDS011;7461;52.440;13.540;2022-11-20T08:47:10;26.73;;;24.17;;
14738;SDS011;7461;52.440;13.540;2022-11-20T08:49:37;27.85;;;25.55;;
14738;SDS011;7461;52.440;13.540;2022-11-20T08:52:04;25.15;;;23.05;;
14738;SDS011;7461;52.440;13.540;2022-11-20T08:54:31;26.17;;;23.92;;
14738;SDS011;7461;52.440;13.540;2022-11-20T08:57:01;28.13;;;25.35;;
14738;SDS011;7461;52.440;13.540;2022-11-20T08:59:29;26.40;;;23.85;;
14738;SDS011;7461;52.440;13.540;2022-11-20T09:01:57;25.35;;;23.15;;
14738;SDS011;7461;52.440;13.540;2022-11-20T09:04:24;26.77;;;24.48;;
14738;SDS011;7461;52.440;13.540;2022-11-20T09:06:51;26.98;;;24.40;;
14738;SDS011;7461;52.440;13.540;2022-11-20T09:09:18;25.85;;;23.50;;
14738;SDS011;7461;52.440;13.540;2022-11-20T09:11:45;24.50;;;22.27;;
14738;SDS011;7461;52.440;13.540;2022-11-20T09:14:12;24.77;;;22.85;;
14738;SDS011;7461;52.440;13.540;2022-11-20T09:16:40;25.35;;;23.10;;
14738;SDS011;7461;52.440;13.540;2022-11-20T09:19:07;26.35;;;24.08;;
14738;SDS011;7461;52.440;13.540;2022-11-20T09:21:34;26.23;;;23.80;;
14738;SDS011;7461;52.440;13.540;2022-11-20T09:24:01;25.92;;;23.38;;
14738;SDS011;7461;52.440;13.540;2022-11-20T09:26:28;22.88;;;20.98;;
14738;SDS011;7461;52.440;13.540;2022-11-20T09:28:55;25.48;;;23.27;;
14738;SDS011;7461;52.440;13.540;2022-11-20T09:31:23;23.33;;;21.33;;
14738;SDS011;7461;52.440;13.540;2022-11-20T09:33:52;27.27;;;24.77;;
14738;SDS011;7461;52.440;13.540;2022-11-20T09:36:19;24.73;;;22.63;;
14738;SDS011;7461;52.440;13.540;2022-11-20T09:38:46;24.67;;;22.67;;
14738;SDS011;7461;52.440;13.540;2022-11-20T09:41:19;25.40;;;23.15;;
14738;SDS011;7461;52.440;13.540;2022-11-20T09:44:01;26.35;;;23.90;;
14738;SDS011;7461;52.440;13.540;2022-11-20T09:46:38;24.17;;;22.17;;
14738;SDS011;7461;52.440;13.540;2022-11-20T09:49:22;28.13;;;25.63;;
14738;SDS011;7461;52.440;13.540;2022-11-20T09:51:54;28.35;;;25.45;;
14738;SDS011;7461;52.440;13.540;2022-11-20T09:54:26;27.95;;;25.13;;
14738;SDS011;7461;52.440;13.540;2022-11-20T09:56:58;28.77;;;26.35;;
14738;SDS011;7461;52.440;13.540;2022-11-20T09:59:32;27.05;;;24.40;;
14738;SDS011;7461;52.440;13.540;2022-11-20T10:02:02;27.80;;;25.40;;
14738;SDS011;7461;52.440;13.540;2022-11-20T10:04:44;29.75;;;27.33;;
14738;SDS011;7461;52.440;13.540;2022-11-20T10:07:16;26.80;;;24.33;;
14738;SDS011;7461;52.440;13.540;2022-11-20T10:09:49;26.05;;;23.75;;
14738;SDS011;7461;52.440;13.540;2022-11-20T10:12:19;29.67;;;26.88;;
14738;SDS011;7461;52.440;13.540;2022-11-20T10:14:58;27.35;;;25.02;;
14738;SDS011;7461;52.440;13.540;2022-11-20T10:17:50;26.58;;;24.40;;
14738;SDS011;7461;52.440;13.540;2022-11-20T10:20:38;29.35;;;26.52;;
14738;SDS011;7461;52.440;13.540;2022-11-20T10:23:17;27.38;;;24.85;;
14738;SDS011;7461;52.440;13.540;2022-11-20T10:25:56;28.83;;;26.38;;
14738;SDS011;7461;52.440;13.540;2022-11-20T10:31:24;28.23;;;25.77;;
14738;SDS011;7461;52.440;13.540;2022-11-20T10:33:56;27.88;;;25.50;;
14738;SDS011;7461;52.440;13.540;2022-11-20T10:36:28;30.02;;;27.33;;
14738;SDS011;7461;52.440;13.540;2022-11-20T10:39:01;28.63;;;26.02;;
14738;SDS011;7461;52.440;13.540;2022-11-20T10:41:32;29.33;;;26.63;;
14738;SDS011;7461;52.440;13.540;2022-11-20T10:44:05;29.10;;;26.33;;
14738;SDS011;7461;52.440;13.540;2022-11-20T10:46:39;28.48;;;25.95;;
14738;SDS011;7461;52.440;13.540;2022-11-20T10:49:11;27.80;;;25.50;;
14738;SDS011;7461;52.440;13.540;2022-11-20T10:51:45;29.10;;;26.58;;
14738;SDS011;7461;52.440;13.540;2022-11-20T10:54:22;30.23;;;27.45;;
14738;SDS011;7461;52.440;13.540;2022-11-20T10:56:59;28.08;;;25.63;;
14738;SDS011;7461;52.440;13.540;2022-11-20T10:59:55;28.73;;;26.30;;
14738;SDS011;7461;52.440;13.540;2022-11-20T11:02:32;27.33;;;24.95;;
14738;SDS011;7461;52.440;13.540;2022-11-20T11:05:04;28.90;;;26.27;;
14738;SDS011;7461;52.440;13.540;2022-11-20T11:07:41;27.73;;;25.23;;
14738;SDS011;7461;52.440;13.540;2022-11-20T11:10:14;29.35;;;26.55;;
14738;SDS011;7461;52.440;13.540;2022-11-20T11:12:43;30.27;;;27.55;;
14738;SDS011;7461;52.440;13.540;2022-11-20T11:15:13;32.38;;;29.52;;
14738;SDS011;7461;52.440;13.540;2022-11-20T11:17:50;30.70;;;27.80;;
14738;SDS011;7461;52.440;13.540;2022-11-20T11:20:18;32.92;;;29.70;;
14738;SDS011;7461;52.440;13.540;2022-11-20T11:22:48;29.90;;;26.98;;
14738;SDS011;7461;52.440;13.540;2022-11-20T11:25:20;29.35;;;26.92;;
14738;SDS011;7461;52.440;13.540;2022-11-20T11:27:55;27.48;;;25.00;;
14738;SDS011;7461;52.440;13.540;2022-11-20T11:30:24;28.42;;;26.00;;
14738;SDS011;7461;52.440;13.540;2022-11-20T11:33:02;25.45;;;23.42;;
14738;SDS011;7461;52.440;13.540;2022-11-20T11:35:31;29.75;;;27.38;;
14738;SDS011;7461;52.440;13.540;2022-11-20T11:38:04;30.60;;;27.48;;
14738;SDS011;7461;52.440;13.540;2022-11-20T11:40:33;28.77;;;26.27;;
14738;SDS011;7461;52.440;13.540;2022-11-20T11:43:05;30.20;;;27.65;;
14738;SDS011;7461;52.440;13.540;2022-11-20T11:45:54;28.90;;;26.20;;
14738;SDS011;7461;52.440;13.540;2022-11-20T11:48:21;31.65;;;28.95;;
14738;SDS011;7461;52.440;13.540;2022-11-20T11:50:48;28.15;;;25.58;;
14738;SDS011;7461;52.440;13.540;2022-11-20T11:53:18;34.03;;;30.98;;
14738;SDS011;7461;52.440;13.540;2022-11-20T11:55:49;30.42;;;27.55;;
14738;SDS011;7461;52.440;13.540;2022-11-20T11:58:28;28.40;;;26.02;;
14738;SDS011;7461;52.440;13.540;2022-11-20T12:01:09;29.50;;;26.85;;
14738;SDS011;7461;52.440;13.540;2022-11-20T12:03:50;27.80;;;25.35;;
14738;SDS011;7461;52.440;13.540;2022-11-20T12:06:21;28.23;;;25.67;;
14738;SDS011;7461;52.440;13.540;2022-11-20T12:08:53;31.65;;;28.60;;
14738;SDS011;7461;52.440;13.540;2022-11-20T12:11:24;24.85;;;22.83;;
14738;SDS011;7461;52.440;13.540;2022-11-20T12:13:57;26.73;;;24.42;;
14738;SDS011;7461;52.440;13.540;2022-11-20T12:16:30;26.88;;;24.55;;
14738;SDS011;7461;52.440;13.540;2022-11-20T12:19:01;27.75;;;25.27;;
14738;SDS011;7461;52.440;13.540;2022-11-20T12:21:31;28.48;;;26.08;;
14738;SDS011;7461;52.440;13.540;2022-11-20T12:24:13;27.35;;;24.92;;
14738;SDS011;7461;52.440;13.540;2022-11-20T12:26:59;28.02;;;25.52;;
14738;SDS011;7461;52.440;13.540;2022-11-20T12:29:34;25.15;;;23.00;;
14738;SDS011;7461;52.440;13.540;2022-11-20T12:35:07;25.98;;;23.48;;
14738;SDS011;7461;52.440;13.540;2022-11-20T12:37:44;25.20;;;22.75;;
14738;SDS011;7461;52.440;13.540;2022-11-20T12:40:20;24.50;;;22.23;;
14738;SDS011;7461;52.440;13.540;2022-11-20T12:43:01;23.83;;;21.63;;
14738;SDS011;7461;52.440;13.540;2022-11-20T12:46:06;24.75;;;22.48;;
14738;SDS011;7461;52.440;13.540;2022-11-20T12:48:55;25.60;;;23.50;;
14738;SDS011;7461;52.440;13.540;2022-11-20T12:51:55;22.25;;;20.33;;
14738;SDS011;7461;52.440;13.540;2022-11-20T12:54:44;25.15;;;22.98;;
14738;SDS011;7461;52.440;13.540;2022-11-20T12:57:21;21.83;;;19.92;;
14738;SDS011;7461;52.440;13.540;2022-11-20T13:00:00;22.02;;;20.13;;
14738;SDS011;7461;52.440;13.540;2022-11-20T13:02:37;18.27;;;16.48;;
14738;SDS011;7461;52.440;13.540;2022-11-20T13:05:27;18.92;;;17.13;;
14738;SDS011;7461;52.440;13.540;2022-11-20T13:08:00;17.55;;;15.98;;
14738;SDS011;7461;52.440;13.540;2022-11-20T13:10:31;15.60;;;14.20;;
14738;SDS011;7461;52.440;13.540;2022-11-20T13:13:05;15.15;;;13.85;;
14738;SDS011;7461;52.440;13.540;2022-11-20T13:15:44;15.05;;;13.85;;
14738;SDS011;7461;52.440;13.540;2022-11-20T13:18:16;14.43;;;13.02;;
14738;SDS011;7461;52.440;13.540;2022-11-20T13:20:44;15.45;;;14.10;;
14738;SDS011;7461;52.440;13.540;2022-11-20T13:23:22;14.95;;;13.68;;
14738;SDS011;7461;52.440;13.540;2022-11-20T13:25:50;13.32;;;12.00;;
14738;SDS011;7461;52.440;13.540;2022-11-20T13:28:30;13.52;;;12.38;;
14738;SDS011;7461;52.440;13.540;2022-11-20T13:30:57;13.35;;;12.07;;
14738;SDS011;7461;52.440;13.540;2022-11-20T13:33:27;14.95;;;13.63;;
14738;SDS011;7461;52.440;13.540;2022-11-20T13:35:58;13.52;;;12.27;;
14738;SDS011;7461;52.440;13.540;2022-11-20T13:38:26;13.90;;;12.35;;
14738;SDS011;7461;52.440;13.540;2022-11-20T13:40:54;12.55;;;11.23;;
14738;SDS011;7461;52.440;13.540;2022-11-20T13:43:26;13.30;;;12.18;;
14738;SDS011;7461;52.440;13.540;2022-11-20T13:46:01;13.57;;;12.38;;
14738;SDS011;7461;52.440;13.540;2022-11-20T13:48:31;13.75;;;12.55;;
14738;SDS011;7461;52.440;13.540;2022-11-20T13:51:04;13.88;;;12.73;;
14738;SDS011;7461;52.440;13.540;2022-11-20T13:53:49;15.95;;;14.48;;
14738;SDS011;7461;52.440;13.540;2022-11-20T13:56:54;16.58;;;15.02;;
14738;SDS011;7461;52.440;13.540;2022-11-20T13:59:38;14.05;;;12.95;;
14738;SDS011;7461;52.440;13.540;2022-11-20T14:02:13;14.32;;;13.25;;
14738;SDS011;7461;52.440;13.540;2022-11-20T14:04:42;15.70;;;14.23;;
14738;SDS011;7461;52.440;13.540;2022-11-20T14:07:14;16.42;;;14.95;;
14738;SDS011;7461;52.440;13.540;2022-11-20T14:09:49;14.60;;;13.10;;
14738;SDS011;7461;52.440;13.540;2022-11-20T14:12:18;15.75;;;14.40;;
14738;SDS011;7461;52.440;13.540;2022-11-20T14:14:49;15.60;;;14.10;;
14738;SDS011;7461;52.440;13.540;2022-11-20T14:17:18;14.38;;;12.98;;
14738;SDS011;7461;52.440;13.540;2022-11-20T14:19:47;16.90;;;15.30;;
14738;SDS011;7461;52.440;13.540;2022-11-20T14:22:17;16.88;;;15.52;;
14738;SDS011;7461;52.440;13.540;2022-11-20T14:24:47;16.33;;;14.90;;
14738;SDS011;7461;52.440;13.540;2022-11-20T14:27:15;15.73;;;14.35;;
14738;SDS011;7461;52.440;13.540;2022-11-20T14:29:44;17.95;;;16.55;;
14738;SDS011;7461;52.440;13.540;2022-11-20T14:32:17;17.88;;;16.45;;
14738;SDS011;7461;52.440;13.540;2022-11-20T14:34:46;17.42;;;15.90;;
14738;SDS011;7461;52.440;13.540;2022-11-20T14:37:17;14.95;;;13.68;;
14738;SDS011;7461;52.440;13.540;2022-11-20T14:39:49;16.77;;;15.38;;
14738;SDS011;7461;52.440;13.540;2022-11-20T14:42:19;17.63;;;16.00;;
14738;SDS011;7461;52.440;13.540;2022-11-20T14:44:47;16.27;;;15.13;;
14738;SDS011;7461;52.440;13.540;2022-11-20T14:47:17;15.30;;;14.10;;